Time;durP1;ratioP1;P1;durP2;ratioP2;P2;SDS_P1;SDS_P2;PMS_P1;PMS_P2;Temp;Humidity;BMP_temperature;BMP_pressure;BME280_temperature;BME280_humidity;BME280_pressure;Samples;Min_cycle;Max_cycle;Signal;HPM_P1;HPM_P2
2022/03/03 00:01:15;;;;;;;51.10;24.13;;;1.00;99.90;;;;;;5202424;28;20219;-51
2022/03/03 00:03:46;;;;;;;48.90;22.57;;;1.00;99.90;;;;;;5199602;28;20678;-51
2022/03/03 00:06:16;;;;;;;46.63;23.47;;;1.00;99.90;;;;;;5201324;28;20237;-50
2022/03/03 00:08:47;;;;;;;41.40;21.80;;;1.00;99.90;;;;;;5199371;28;20812;-51
2022/03/03 00:11:17;;;;;;;48.50;21.17;;;1.00;99.90;;;;;;5202839;28;20683;-49
2022/03/03 00:13:49;;;;;;;37.67;19.73;;;1.00;99.90;;;;;;5202401;28;20270;-51
2022/03/03 00:16:19;;;;;;;46.00;20.10;;;1.00;99.90;;;;;;5200148;28;20222;-51
2022/03/03 00:18:50;;;;;;;32.37;18.77;;;1.00;99.90;;;;;;5201208;28;21025;-51
2022/03/03 00:21:20;;;;;;;40.30;19.90;;;1.00;99.90;;;;;;5198618;28;20730;-50
2022/03/03 00:23:51;;;;;;;50.77;22.13;;;1.00;99.90;;;;;;5203997;28;20682;-51
2022/03/03 00:26:21;;;;;;;37.77;20.87;;;1.00;99.90;;;;;;5201729;28;20213;-49
2022/03/03 00:28:52;;;;;;;59.70;23.73;;;1.00;99.90;;;;;;5201284;28;20176;-51
2022/03/03 00:31:23;;;;;;;51.27;22.47;;;0.90;99.90;;;;;;5201709;28;20200;-50
2022/03/03 00:33:54;;;;;;;44.43;21.87;;;0.80;99.90;;;;;;5196426;28;20176;-51
2022/03/03 00:36:24;;;;;;;50.27;22.93;;;0.80;99.90;;;;;;5203776;28;20945;-50
2022/03/03 00:38:55;;;;;;;51.83;22.77;;;0.80;99.90;;;;;;5205742;28;20190;-49
2022/03/03 00:41:25;;;;;;;44.77;22.50;;;0.80;99.90;;;;;;5206185;28;20233;-50
2022/03/03 00:43:56;;;;;;;54.90;24.77;;;0.70;99.90;;;;;;5205852;28;20218;-50
2022/03/03 00:46:26;;;;;;;54.43;24.03;;;0.70;99.90;;;;;;5204868;28;20505;-49
2022/03/03 00:48:57;;;;;;;51.20;24.10;;;0.60;99.90;;;;;;5201860;28;20187;-51
2022/03/03 00:51:28;;;;;;;51.07;25.20;;;0.60;99.90;;;;;;5201539;28;20215;-50
2022/03/03 00:53:58;;;;;;;44.63;23.53;;;0.60;99.90;;;;;;5204837;28;20267;-51
2022/03/03 00:56:29;;;;;;;48.53;22.60;;;0.50;99.90;;;;;;5206299;28;20569;-50
2022/03/03 00:58:59;;;;;;;42.07;21.90;;;0.50;99.90;;;;;;5207797;28;20198;-51
2022/03/03 01:01:30;;;;;;;43.23;21.80;;;0.50;99.90;;;;;;5204943;28;20215;-50
2022/03/03 01:04:00;;;;;;;40.80;21.50;;;0.50;99.90;;;;;;5205752;28;20195;-50
2022/03/03 01:06:31;;;;;;;56.80;25.53;;;0.60;99.90;;;;;;5202980;28;20251;-49
2022/03/03 01:09:02;;;;;;;54.30;25.17;;;0.70;99.90;;;;;;5205409;28;20206;-49
2022/03/03 01:11:32;;;;;;;50.97;25.00;;;0.90;99.90;;;;;;5202641;28;20771;-50
2022/03/03 01:14:03;;;;;;;62.27;25.97;;;1.00;99.90;;;;;;5205213;28;20207;-50
2022/03/03 01:16:33;;;;;;;61.00;27.27;;;1.10;99.90;;;;;;5202914;28;20182;-50
2022/03/03 01:19:05;;;;;;;69.40;28.87;;;1.10;99.90;;;;;;5205004;28;20282;-50
2022/03/03 01:21:35;;;;;;;65.70;27.60;;;1.10;99.90;;;;;;5203608;28;20214;-50
2022/03/03 01:24:06;;;;;;;53.87;28.83;;;1.10;99.90;;;;;;5200996;28;20438;-50
2022/03/03 01:26:36;;;;;;;52.70;26.13;;;1.10;99.90;;;;;;5203769;28;20516;-50
2022/03/03 01:29:07;;;;;;;58.80;27.43;;;1.10;99.90;;;;;;5203700;28;20659;-50
2022/03/03 01:31:38;;;;;;;49.10;25.40;;;1.10;99.90;;;;;;5203962;28;20234;-49
2022/03/03 01:34:08;;;;;;;54.37;26.87;;;1.10;99.90;;;;;;5204903;28;20648;-50
2022/03/03 01:36:39;;;;;;;55.73;25.97;;;1.10;99.90;;;;;;5203825;28;20191;-51
2022/03/03 01:39:10;;;;;;;62.03;27.27;;;1.10;99.90;;;;;;5202559;28;20442;-50
2022/03/03 01:41:41;;;;;;;48.83;25.53;;;1.20;99.90;;;;;;5204043;28;20219;-50
2022/03/03 01:44:12;;;;;;;45.27;25.70;;;1.20;99.90;;;;;;5203735;28;20468;-49
2022/03/03 01:46:54;;;;;;;53.93;25.70;;;1.10;99.90;;;;;;5201533;28;20608;-50
2022/03/03 01:49:26;;;;;;;46.60;22.67;;;1.00;99.90;;;;;;5203774;28;20550;-50
2022/03/03 01:51:56;;;;;;;45.00;23.50;;;0.90;99.90;;;;;;5201905;28;20451;-49
2022/03/03 01:54:27;;;;;;;45.87;21.03;;;0.80;99.90;;;;;;5202652;28;20453;-49
2022/03/03 01:56:57;;;;;;;66.70;30.57;;;0.80;99.90;;;;;;5204784;28;20187;-49
2022/03/03 01:59:28;;;;;;;58.47;28.77;;;0.60;99.90;;;;;;5203433;28;20187;-49
2022/03/03 02:01:59;;;;;;;71.17;30.57;;;0.60;99.90;;;;;;5203837;28;20567;-50
2022/03/03 02:04:30;;;;;;;56.90;27.83;;;0.70;99.90;;;;;;5201798;28;20697;-50
2022/03/03 02:07:00;;;;;;;59.97;27.87;;;0.60;99.90;;;;;;5194726;28;20517;-50
2022/03/03 02:09:31;;;;;;;56.63;26.80;;;0.70;99.90;;;;;;5201580;28;20234;-50
2022/03/03 02:12:02;;;;;;;58.73;26.70;;;0.60;99.90;;;;;;5205998;28;20225;-49
2022/03/03 02:14:43;;;;;;;50.00;25.13;;;0.60;99.90;;;;;;5205033;28;20174;-49
2022/03/03 02:17:15;;;;;;;59.13;26.03;;;0.70;99.90;;;;;;5203540;28;20430;-49
2022/03/03 02:19:46;;;;;;;35.90;19.97;;;0.80;99.90;;;;;;5204986;28;20837;-49
2022/03/03 02:22:16;;;;;;;34.83;18.80;;;0.80;99.90;;;;;;5203618;28;20469;-50
2022/03/03 02:24:47;;;;;;;40.33;18.23;;;0.90;99.90;;;;;;5203880;28;20215;-50
2022/03/03 02:27:19;;;;;;;36.57;19.00;;;1.00;99.90;;;;;;5202504;28;20179;-50
2022/03/03 02:29:50;;;;;;;40.50;18.87;;;1.00;99.90;;;;;;5203319;28;20259;-51
2022/03/03 02:32:20;;;;;;;42.83;19.73;;;1.10;99.90;;;;;;5202483;28;21009;-50
2022/03/03 02:34:51;;;;;;;40.80;18.90;;;1.10;99.90;;;;;;5203850;28;20434;-50
2022/03/03 02:37:22;;;;;;;42.30;17.77;;;1.00;99.90;;;;;;5203693;28;21123;-50
2022/03/03 02:39:52;;;;;;;34.57;18.07;;;1.00;99.90;;;;;;5203960;28;20259;-49
2022/03/03 02:42:23;;;;;;;28.10;15.70;;;1.00;99.90;;;;;;5201166;28;20211;-48
2022/03/03 02:44:53;;;;;;;33.87;19.10;;;0.80;99.90;;;;;;5204738;28;20175;-49
2022/03/03 02:47:24;;;;;;;29.53;16.57;;;0.80;99.90;;;;;;5205612;28;20249;-50
2022/03/03 02:49:54;;;;;;;35.27;15.73;;;0.80;99.90;;;;;;5204787;28;20267;-50
2022/03/03 02:52:25;;;;;;;27.97;17.40;;;0.70;99.90;;;;;;5202955;28;20584;-51
2022/03/03 02:54:55;;;;;;;32.73;14.57;;;0.60;99.90;;;;;;5204722;28;20180;-50
2022/03/03 03:00:15;;;;;;;33.47;14.70;;;0.60;99.90;;;;;;5202670;28;20624;-51
2022/03/03 03:02:46;;;;;;;31.37;16.03;;;0.60;99.90;;;;;;5203895;28;20553;-49
2022/03/03 03:05:16;;;;;;;27.60;14.80;;;0.60;99.90;;;;;;5203960;28;20477;-49
2022/03/03 03:07:47;;;;;;;25.10;14.83;;;0.60;99.90;;;;;;5205104;28;20180;-50
2022/03/03 03:10:18;;;;;;;32.20;17.33;;;0.60;99.90;;;;;;5203962;28;20177;-49
2022/03/03 03:12:48;;;;;;;35.70;15.90;;;0.70;99.90;;;;;;5203217;28;20469;-49
2022/03/03 03:15:19;;;;;;;25.67;15.10;;;0.70;99.90;;;;;;5203184;28;20188;-50
2022/03/03 03:17:50;;;;;;;27.93;15.30;;;0.70;99.90;;;;;;5201354;28;20207;-49
2022/03/03 03:20:21;;;;;;;19.83;11.80;;;0.60;99.90;;;;;;5202262;28;20224;-49
2022/03/03 03:22:51;;;;;;;29.63;15.30;;;0.50;99.90;;;;;;5203680;28;20293;-51
2022/03/03 03:25:22;;;;;;;31.83;15.80;;;0.50;99.90;;;;;;5202994;28;20204;-49
2022/03/03 03:27:54;;;;;;;28.87;15.67;;;0.50;99.90;;;;;;5203389;28;20267;-50
2022/03/03 03:30:24;;;;;;;34.07;15.63;;;0.50;99.90;;;;;;5167826;28;20280;-49
2022/03/03 03:32:55;;;;;;;29.03;14.30;;;0.40;99.90;;;;;;5200546;28;20476;-50
2022/03/03 03:35:26;;;;;;;28.33;15.37;;;0.40;99.90;;;;;;5200544;28;20207;-51
2022/03/03 03:37:57;;;;;;;37.73;14.00;;;0.30;99.90;;;;;;5204943;28;20458;-50
2022/03/03 03:40:28;;;;;;;26.57;14.27;;;0.20;99.90;;;;;;5201052;28;20186;-50
2022/03/03 03:42:58;;;;;;;26.27;14.73;;;0.20;99.90;;;;;;5198137;28;20934;-50
2022/03/03 03:45:29;;;;;;;42.63;14.20;;;0.10;99.90;;;;;;5203195;28;20179;-50
2022/03/03 03:47:59;;;;;;;32.73;15.23;;;0.10;99.90;;;;;;5203032;28;20269;-50
2022/03/03 03:50:30;;;;;;;28.47;13.50;;;0.10;99.90;;;;;;5199985;28;20177;-50
2022/03/03 03:53:00;;;;;;;28.93;15.23;;;0.10;99.90;;;;;;5200001;28;20203;-49
2022/03/03 03:55:31;;;;;;;22.10;12.80;;;0.10;99.90;;;;;;5200975;28;20524;-50
2022/03/03 03:58:02;;;;;;;25.80;14.83;;;0.00;99.90;;;;;;5202677;28;20188;-51
2022/03/03 04:00:33;;;;;;;30.73;16.57;;;0.00;99.90;;;;;;5202562;28;20194;-50
2022/03/03 04:03:03;;;;;;;32.83;15.80;;;-0.10;99.90;;;;;;5200377;28;21351;-51
2022/03/03 04:05:35;;;;;;;26.87;15.70;;;-0.10;99.90;;;;;;5199255;28;20185;-49
2022/03/03 04:08:05;;;;;;;28.60;14.43;;;-0.10;99.90;;;;;;5202512;28;20170;-50
2022/03/03 04:10:36;;;;;;;28.07;15.60;;;-0.10;99.90;;;;;;5200969;28;20438;-49
2022/03/03 04:13:07;;;;;;;32.50;16.47;;;-0.10;99.90;;;;;;5205740;28;20689;-49
2022/03/03 04:15:37;;;;;;;39.80;16.63;;;-0.10;99.90;;;;;;5205803;28;20536;-50
2022/03/03 04:18:08;;;;;;;27.63;15.20;;;-0.10;99.90;;;;;;5206705;28;20229;-49
2022/03/03 04:20:39;;;;;;;27.63;16.03;;;-0.10;99.90;;;;;;5204292;28;20180;-50
2022/03/03 04:23:09;;;;;;;32.23;16.37;;;-0.10;99.90;;;;;;5201772;28;20490;-50
2022/03/03 04:25:40;;;;;;;29.73;14.00;;;-0.10;99.90;;;;;;5204495;28;20543;-49
2022/03/03 04:28:10;;;;;;;32.97;15.83;;;-0.10;99.90;;;;;;5185976;28;20191;-51
2022/03/03 04:30:41;;;;;;;28.03;14.40;;;-0.10;99.90;;;;;;5203774;28;20189;-50
2022/03/03 04:33:12;;;;;;;38.47;17.20;;;-0.10;99.90;;;;;;5205286;28;20204;-49
2022/03/03 04:35:42;;;;;;;29.77;16.13;;;-0.20;99.90;;;;;;5205106;28;20183;-51
2022/03/03 04:38:13;;;;;;;30.33;15.97;;;-0.20;99.90;;;;;;5204111;28;20670;-50
2022/03/03 04:40:44;;;;;;;37.00;17.40;;;-0.20;99.90;;;;;;5198118;28;20229;-49
2022/03/03 04:43:14;;;;;;;35.77;17.83;;;-0.20;99.90;;;;;;5204433;28;20258;-49
2022/03/03 04:45:45;;;;;;;42.20;18.00;;;-0.30;99.90;;;;;;5204939;28;20261;-49
2022/03/03 04:48:15;;;;;;;30.30;16.83;;;-0.40;99.90;;;;;;5205937;28;20185;-49
2022/03/03 04:50:46;;;;;;;32.70;16.20;;;-0.40;99.90;;;;;;5207588;28;20190;-48
2022/03/03 04:53:16;;;;;;;28.50;16.47;;;-0.50;99.90;;;;;;5207656;28;20196;-49
2022/03/03 04:55:47;;;;;;;43.40;17.17;;;-0.50;99.90;;;;;;5206791;28;20184;-51
2022/03/03 04:58:17;;;;;;;30.43;17.33;;;-0.60;99.90;;;;;;5206169;28;20175;-50
2022/03/03 05:00:48;;;;;;;27.73;16.83;;;-0.70;99.90;;;;;;5203069;28;20183;-50
2022/03/03 05:03:19;;;;;;;33.07;16.17;;;-0.80;99.90;;;;;;5202403;28;20259;-49
2022/03/03 05:05:49;;;;;;;28.13;15.60;;;-0.90;99.90;;;;;;5205289;28;20591;-49
2022/03/03 05:08:19;;;;;;;25.50;15.37;;;-1.00;99.90;;;;;;5202360;28;20192;-49
2022/03/03 05:10:50;;;;;;;26.17;15.00;;;-1.00;99.90;;;;;;5204023;28;20616;-50
2022/03/03 05:13:20;;;;;;;29.93;16.03;;;-1.10;99.90;;;;;;5213850;22;20223;-46
2022/03/03 05:15:51;;;;;;;31.50;16.00;;;-1.20;99.90;;;;;;5207841;28;20519;-47
2022/03/03 05:18:21;;;;;;;31.67;16.90;;;-1.20;99.90;;;;;;5207356;28;20186;-47
2022/03/03 05:20:52;;;;;;;26.63;14.77;;;-1.30;99.90;;;;;;5191554;28;20230;-47
2022/03/03 05:23:23;;;;;;;32.23;16.70;;;-1.30;99.90;;;;;;5205290;28;20698;-47
2022/03/03 05:25:54;;;;;;;34.73;17.30;;;-1.40;99.90;;;;;;5187405;28;20237;-47
2022/03/03 05:28:24;;;;;;;30.83;15.67;;;-1.40;99.90;;;;;;5206175;28;20552;-46
2022/03/03 05:30:55;;;;;;;29.20;15.80;;;-1.40;99.90;;;;;;5203113;28;20184;-48
2022/03/03 05:33:26;;;;;;;29.20;16.17;;;-1.50;99.90;;;;;;5184942;28;20208;-46
2022/03/03 05:35:59;;;;;;;34.27;16.70;;;-1.50;99.90;;;;;;5206596;28;20536;-47
2022/03/03 05:38:33;;;;;;;29.47;16.10;;;-1.50;99.90;;;;;;5202944;28;20455;-47
2022/03/03 05:41:05;;;;;;;28.43;16.60;;;-1.60;99.90;;;;;;5195553;28;20444;-47
2022/03/03 05:43:35;;;;;;;29.73;17.60;;;-1.60;99.90;;;;;;5186807;28;20465;-47
2022/03/03 05:46:06;;;;;;;33.37;16.97;;;-1.60;99.90;;;;;;5204264;28;20465;-47
2022/03/03 05:48:37;;;;;;;24.33;14.57;;;-1.50;99.90;;;;;;5202095;28;20669;-48
2022/03/03 05:51:08;;;;;;;30.37;16.10;;;-1.50;99.90;;;;;;5205413;28;20243;-48
2022/03/03 05:53:39;;;;;;;24.20;15.97;;;-1.50;99.90;;;;;;5204790;28;20226;-47
2022/03/03 05:56:11;;;;;;;36.83;17.43;;;-1.50;99.90;;;;;;5205401;28;20486;-47
2022/03/03 05:58:47;;;;;;;34.30;18.03;;;-1.50;99.90;;;;;;5186304;28;20648;-47
2022/03/03 06:01:18;;;;;;;24.50;16.47;;;-1.40;99.90;;;;;;5187694;28;20461;-48
2022/03/03 06:03:50;;;;;;;39.00;20.70;;;-1.40;99.90;;;;;;5205151;28;20612;-48
2022/03/03 06:06:31;;;;;;;38.87;19.30;;;-1.40;99.90;;;;;;5202837;28;20468;-48
2022/03/03 06:09:11;;;;;;;37.10;20.40;;;-1.20;99.90;;;;;;5193745;28;20814;-47
2022/03/03 06:12:04;;;;;;;44.00;21.17;;;-1.20;99.90;;;;;;5203532;28;20515;-47
2022/03/03 06:14:42;;;;;;;36.43;18.70;;;-1.20;99.90;;;;;;5196838;28;20458;-50
2022/03/03 06:17:13;;;;;;;40.33;20.53;;;-1.20;99.90;;;;;;5198993;28;20429;-48
2022/03/03 06:19:45;;;;;;;41.10;21.33;;;-1.20;99.90;;;;;;5204995;28;20464;-47
2022/03/03 06:22:16;;;;;;;38.90;19.70;;;-1.10;99.90;;;;;;5204882;28;21108;-47
2022/03/03 06:24:47;;;;;;;38.10;21.93;;;-1.00;99.90;;;;;;5195835;28;20537;-47
2022/03/03 06:27:18;;;;;;;36.87;19.53;;;-0.90;99.90;;;;;;5201036;28;20176;-47
2022/03/03 06:29:49;;;;;;;43.13;21.77;;;-0.80;99.90;;;;;;5180056;28;20439;-46
2022/03/03 06:32:19;;;;;;;38.63;20.40;;;-0.70;99.90;;;;;;5201984;28;20267;-48
2022/03/03 06:34:50;;;;;;;47.73;22.80;;;-0.60;99.90;;;;;;5203696;28;20602;-48
2022/03/03 06:37:20;;;;;;;43.10;22.33;;;-0.70;99.90;;;;;;5201300;28;20204;-48
2022/03/03 06:39:51;;;;;;;49.37;21.53;;;-0.60;99.90;;;;;;5199024;28;20269;-48
2022/03/03 06:42:22;;;;;;;42.30;21.50;;;-0.60;99.90;;;;;;5201185;28;20217;-49
2022/03/03 06:44:54;;;;;;;41.70;22.40;;;-0.40;99.90;;;;;;5199246;28;20194;-47
2022/03/03 06:47:24;;;;;;;39.80;20.80;;;0.00;99.90;;;;;;5200953;28;20662;-47
2022/03/03 06:49:55;;;;;;;53.00;24.50;;;0.80;99.90;;;;;;5202648;28;20426;-48
2022/03/03 06:52:26;;;;;;;37.77;20.60;;;1.80;99.90;;;;;;5197341;28;20218;-47
2022/03/03 06:54:58;;;;;;;30.70;19.33;;;2.80;99.90;;;;;;5198963;28;20291;-46
2022/03/03 06:57:29;;;;;;;40.00;21.70;;;3.50;99.90;;;;;;5177644;28;20447;-48
2022/03/03 07:00:01;;;;;;;37.20;18.50;;;4.20;99.90;;;;;;5194349;28;20434;-48
2022/03/03 07:02:33;;;;;;;31.47;19.63;;;4.70;91.60;;;;;;5183394;28;20915;-48
2022/03/03 07:05:04;;;;;;;40.43;20.60;;;4.90;84.50;;;;;;5201216;28;20419;-50
2022/03/03 07:07:36;;;;;;;41.57;23.37;;;4.10;90.10;;;;;;5201463;28;20473;-48
2022/03/03 07:10:07;;;;;;;49.47;23.90;;;3.00;97.20;;;;;;5166298;28;20215;-48
2022/03/03 07:12:38;;;;;;;48.90;26.33;;;1.40;99.90;;;;;;5201949;28;21121;-47
2022/03/03 07:15:09;;;;;;;59.33;27.07;;;0.20;99.90;;;;;;5199962;28;20454;-48
2022/03/03 07:17:51;;;;;;;57.27;26.97;;;-0.70;99.90;;;;;;5201017;28;20475;-46
2022/03/03 07:20:30;;;;;;;54.60;28.30;;;-1.40;99.90;;;;;;5199908;28;20418;-48
2022/03/03 07:23:03;;;;;;;65.57;29.43;;;-1.50;99.90;;;;;;5198816;28;20499;-48
2022/03/03 07:25:48;;;;;;;59.07;29.00;;;-1.50;99.90;;;;;;5199964;28;20436;-48
2022/03/03 07:28:20;;;;;;;66.47;29.87;;;-1.50;99.90;;;;;;5179479;28;20547;-49
2022/03/03 07:30:51;;;;;;;61.63;29.50;;;-1.40;99.90;;;;;;5199226;28;20509;-48
2022/03/03 07:33:47;;;;;;;63.30;31.80;;;-1.50;99.90;;;;;;5180541;28;20452;-47
2022/03/03 07:36:24;;;;;;;55.27;28.60;;;-1.50;99.90;;;;;;5183436;28;20434;-49
2022/03/03 07:39:04;;;;;;;60.20;30.27;;;-1.40;99.90;;;;;;5201934;28;20461;-48
2022/03/03 07:41:35;;;;;;;67.67;29.43;;;-1.30;99.90;;;;;;5199094;28;20473;-47
2022/03/03 07:44:06;;;;;;;77.03;30.57;;;-1.20;99.90;;;;;;5185561;28;20767;-48
2022/03/03 07:46:37;;;;;;;62.37;28.90;;;-1.30;99.90;;;;;;5169099;28;20229;-49
2022/03/03 07:49:09;;;;;;;63.43;31.90;;;-1.10;99.90;;;;;;5185969;28;20791;-48
2022/03/03 07:51:40;;;;;;;61.83;30.33;;;-1.00;99.90;;;;;;5202319;28;20462;-49
2022/03/03 07:54:11;;;;;;;66.93;30.30;;;-1.00;99.90;;;;;;5204034;28;20430;-48
2022/03/03 07:56:47;;;;;;;78.00;29.90;;;-1.00;99.90;;;;;;5170683;28;20217;-48
2022/03/03 07:59:18;;;;;;;59.13;29.03;;;-0.80;99.90;;;;;;5188804;28;20207;-48
2022/03/03 08:01:50;;;;;;;59.97;28.13;;;-0.80;99.90;;;;;;5187168;28;20477;-48
2022/03/03 08:04:28;;;;;;;84.33;31.80;;;-0.80;99.90;;;;;;5203804;28;20444;-50
2022/03/03 08:07:05;;;;;;;63.77;29.13;;;-0.80;99.90;;;;;;5187623;28;20438;-48
2022/03/03 08:09:38;;;;;;;64.57;29.70;;;-0.90;99.90;;;;;;5203422;28;20442;-48
2022/03/03 08:12:11;;;;;;;59.67;27.90;;;-1.00;99.90;;;;;;5200809;28;20520;-49
2022/03/03 08:14:42;;;;;;;59.93;26.53;;;-1.00;99.90;;;;;;5187706;28;20531;-49
2022/03/03 08:17:14;;;;;;;55.20;27.60;;;-0.90;99.90;;;;;;5203856;28;20756;-48
2022/03/03 08:19:45;;;;;;;62.47;29.40;;;-0.70;99.90;;;;;;5170843;28;20180;-50
2022/03/03 08:22:16;;;;;;;63.80;29.80;;;-0.70;99.90;;;;;;5203006;28;20504;-49
2022/03/03 08:24:47;;;;;;;78.20;30.90;;;-0.80;99.90;;;;;;5201339;28;20441;-48
2022/03/03 08:27:20;;;;;;;76.40;32.07;;;-0.90;99.90;;;;;;5202998;28;21219;-46
2022/03/03 08:29:52;;;;;;;66.80;31.17;;;-1.10;99.90;;;;;;5206055;28;20328;-49
2022/03/03 08:32:30;;;;;;;68.37;30.00;;;-1.10;99.90;;;;;;5202240;28;20462;-46
2022/03/03 08:35:15;;;;;;;66.00;30.20;;;-1.10;99.90;;;;;;5188445;28;20445;-48
2022/03/03 08:38:26;;;;;;;68.57;29.50;;;-0.80;99.90;;;;;;5199904;28;20458;-49
2022/03/03 08:40:58;;;;;;;58.27;29.30;;;-0.50;99.90;;;;;;5193818;28;20441;-49
2022/03/03 08:43:31;;;;;;;58.03;26.70;;;-0.40;99.90;;;;;;5200820;28;20476;-49
2022/03/03 08:46:05;;;;;;;58.37;27.87;;;-0.40;99.90;;;;;;5169671;28;21041;-49
2022/03/03 08:48:36;;;;;;;63.00;26.40;;;-0.30;99.90;;;;;;5186412;28;20430;-48
2022/03/03 08:51:06;;;;;;;58.87;28.80;;;-0.30;99.90;;;;;;5187811;28;20976;-50
2022/03/03 08:53:37;;;;;;;71.80;28.53;;;-0.40;99.90;;;;;;5203788;28;20202;-49
2022/03/03 08:56:08;;;;;;;66.07;30.17;;;-0.60;99.90;;;;;;5170136;28;20553;-47
2022/03/03 08:58:39;;;;;;;55.83;27.30;;;-0.70;99.90;;;;;;5203932;28;20195;-49
2022/03/03 09:01:09;;;;;;;56.80;26.17;;;-0.60;99.90;;;;;;5202573;28;20434;-48
2022/03/03 09:03:40;;;;;;;60.73;28.07;;;-0.50;99.90;;;;;;5184320;28;20688;-47
2022/03/03 09:06:17;;;;;;;51.67;24.53;;;-0.40;99.90;;;;;;5186563;28;20393;-48
2022/03/03 09:08:48;;;;;;;50.87;24.87;;;-0.20;99.90;;;;;;5202979;28;20186;-49
2022/03/03 09:11:20;;;;;;;59.73;25.33;;;-0.10;99.90;;;;;;5187005;28;20477;-48
2022/03/03 09:13:52;;;;;;;43.77;21.40;;;0.00;99.90;;;;;;5184965;28;20370;-47
2022/03/03 09:16:22;;;;;;;40.10;22.87;;;0.10;99.90;;;;;;5186162;28;20546;-48
2022/03/03 09:18:54;;;;;;;34.93;18.37;;;0.30;99.90;;;;;;5203933;28;20683;-48
2022/03/03 09:21:24;;;;;;;40.97;22.10;;;0.50;99.90;;;;;;5185760;28;20283;-49
2022/03/03 09:23:55;;;;;;;41.37;19.73;;;0.30;99.90;;;;;;5203815;28;20605;-48
2022/03/03 09:26:27;;;;;;;38.73;19.73;;;0.40;99.90;;;;;;5203350;28;20639;-49
2022/03/03 09:28:58;;;;;;;36.27;20.03;;;0.50;99.90;;;;;;5183217;28;20191;-49
2022/03/03 09:31:29;;;;;;;37.30;19.83;;;0.40;99.90;;;;;;5201709;28;20441;-49
2022/03/03 09:34:00;;;;;;;41.63;20.33;;;0.40;99.90;;;;;;5201609;28;20191;-48
2022/03/03 09:36:30;;;;;;;38.97;20.13;;;0.50;99.90;;;;;;5201674;28;20455;-48
2022/03/03 09:39:01;;;;;;;37.63;19.93;;;0.50;99.90;;;;;;5201908;28;20198;-46
2022/03/03 09:41:32;;;;;;;38.40;20.70;;;0.20;99.90;;;;;;5203950;28;20203;-48
2022/03/03 09:44:02;;;;;;;33.63;19.03;;;0.20;99.90;;;;;;5186344;28;20744;-49
2022/03/03 09:46:36;;;;;;;48.17;20.50;;;0.20;99.90;;;;;;5185017;28;20245;-48
2022/03/03 09:49:07;;;;;;;42.23;18.17;;;0.30;99.90;;;;;;5178575;28;20237;-48
2022/03/03 09:51:37;;;;;;;35.97;19.23;;;0.30;99.90;;;;;;5202645;28;20472;-48
2022/03/03 09:54:08;;;;;;;33.10;16.13;;;0.30;99.90;;;;;;5202151;28;20879;-48
2022/03/03 09:56:39;;;;;;;35.57;17.77;;;0.30;99.90;;;;;;5204241;28;20211;-50
2022/03/03 09:59:10;;;;;;;47.70;19.80;;;0.30;99.90;;;;;;5198721;28;20442;-48
2022/03/03 10:01:41;;;;;;;36.20;16.97;;;0.30;99.90;;;;;;5200227;28;20203;-48
2022/03/03 10:04:16;;;;;;;38.80;18.80;;;0.30;99.90;;;;;;5178095;28;20168;-48
2022/03/03 10:06:47;;;;;;;35.20;15.83;;;0.30;99.90;;;;;;5182713;28;20828;-48
2022/03/03 10:09:18;;;;;;;49.20;16.10;;;0.30;99.90;;;;;;5182262;28;20430;-48
2022/03/03 10:11:48;;;;;;;30.83;16.00;;;0.20;99.90;;;;;;5165259;28;20462;-48
2022/03/03 10:14:30;;;;;;;32.63;15.10;;;0.20;99.90;;;;;;5199530;28;20238;-47
2022/03/03 10:17:05;;;;;;;31.33;16.07;;;0.30;99.90;;;;;;5197100;28;20223;-47
2022/03/03 10:19:54;;;;;;;32.87;14.57;;;0.40;99.90;;;;;;5183283;28;20780;-48
2022/03/03 10:22:38;;;;;;;38.27;15.20;;;0.50;99.90;;;;;;5180499;28;20933;-48
2022/03/03 10:25:11;;;;;;;33.53;15.00;;;0.40;99.90;;;;;;5199403;28;20933;-48
2022/03/03 10:27:42;;;;;;;31.10;13.90;;;0.50;99.90;;;;;;5182297;28;20434;-49
2022/03/03 10:30:12;;;;;;;28.83;13.90;;;0.60;99.90;;;;;;5181170;28;20435;-49
2022/03/03 10:32:43;;;;;;;32.40;15.00;;;0.70;99.90;;;;;;5200664;28;20526;-48
2022/03/03 10:35:16;;;;;;;32.80;13.03;;;0.70;99.90;;;;;;5185094;28;20541;-49
2022/03/03 10:37:47;;;;;;;30.63;14.03;;;0.70;99.90;;;;;;5197067;28;20584;-48
2022/03/03 10:40:17;;;;;;;27.77;14.10;;;0.60;99.90;;;;;;5183341;28;20535;-48
2022/03/03 10:42:50;;;;;;;27.33;13.67;;;0.60;99.90;;;;;;5198594;28;20548;-48
2022/03/03 10:45:21;;;;;;;33.00;14.60;;;0.60;99.90;;;;;;5198403;28;20561;-50
2022/03/03 10:48:06;;;;;;;26.90;14.40;;;0.60;99.90;;;;;;5200891;28;20423;-47
2022/03/03 10:50:45;;;;;;;24.10;12.90;;;0.60;99.90;;;;;;5199979;28;20188;-49
2022/03/03 10:53:18;;;;;;;34.33;13.73;;;0.70;99.90;;;;;;5199957;28;20504;-49
2022/03/03 10:56:05;;;;;;;24.67;13.07;;;0.80;99.90;;;;;;5199554;28;20536;-49
2022/03/03 10:58:51;;;;;;;22.33;12.53;;;1.00;99.90;;;;;;5201356;28;20905;-48
2022/03/03 11:01:25;;;;;;;31.70;11.83;;;0.90;99.90;;;;;;5182893;28;20849;-48
2022/03/03 11:03:57;;;;;;;33.30;14.80;;;0.90;99.90;;;;;;5200599;28;20446;-48
2022/03/03 11:06:29;;;;;;;33.47;14.47;;;0.70;99.90;;;;;;5197859;28;20447;-48
2022/03/03 11:09:00;;;;;;;41.47;14.83;;;0.70;99.90;;;;;;5200091;28;20434;-50
2022/03/03 11:11:30;;;;;;;35.80;13.47;;;0.80;99.90;;;;;;5171953;28;20529;-48
2022/03/03 11:14:01;;;;;;;31.13;14.40;;;0.70;99.90;;;;;;5199935;28;20195;-48
2022/03/03 11:16:32;;;;;;;28.77;15.17;;;0.90;99.90;;;;;;5202181;28;20243;-50
2022/03/03 11:19:03;;;;;;;36.30;13.27;;;1.00;99.90;;;;;;5201800;28;20857;-46
2022/03/03 11:21:34;;;;;;;28.67;13.90;;;1.20;99.90;;;;;;5201639;28;20479;-47
2022/03/03 11:24:05;;;;;;;24.17;11.90;;;1.30;99.90;;;;;;5185717;28;20449;-48
2022/03/03 11:26:44;;;;;;;31.40;13.90;;;1.30;99.90;;;;;;5202405;28;20274;-47
2022/03/03 11:29:16;;;;;;;31.40;12.97;;;1.40;99.90;;;;;;5183499;28;20461;-50
2022/03/03 11:32:02;;;;;;;30.70;12.90;;;1.30;99.90;;;;;;5186928;28;20532;-47
2022/03/03 11:34:32;;;;;;;27.23;11.93;;;1.30;99.90;;;;;;5184396;28;20445;-49
2022/03/03 11:37:06;;;;;;;25.27;13.07;;;1.40;99.90;;;;;;5201047;28;20438;-49
2022/03/03 11:39:46;;;;;;;20.60;11.00;;;1.50;99.90;;;;;;5196723;28;20686;-48
2022/03/03 11:42:39;;;;;;;25.53;11.80;;;1.70;99.90;;;;;;5204061;28;20584;-49
2022/03/03 11:45:09;;;;;;;22.13;12.33;;;2.00;99.90;;;;;;5202028;28;20441;-49
2022/03/03 11:47:45;;;;;;;19.20;10.50;;;2.00;99.90;;;;;;5203545;28;20437;-48
2022/03/03 11:50:19;;;;;;;18.67;11.73;;;1.90;99.90;;;;;;5202657;28;20721;-49
2022/03/03 11:52:57;;;;;;;25.30;11.13;;;1.80;99.90;;;;;;5180767;28;20450;-49
2022/03/03 11:55:36;;;;;;;24.87;11.30;;;1.80;99.90;;;;;;5199788;28;20445;-49
2022/03/03 11:58:14;;;;;;;19.30;10.97;;;1.70;99.90;;;;;;5185433;28;20456;-49
2022/03/03 12:00:58;;;;;;;22.23;10.80;;;1.60;99.90;;;;;;5184070;28;20433;-49
2022/03/03 12:03:29;;;;;;;20.70;11.33;;;1.40;99.90;;;;;;5179186;28;20978;-49
2022/03/03 12:06:05;;;;;;;17.23;9.67;;;1.50;99.90;;;;;;5203177;28;20934;-48
2022/03/03 12:08:40;;;;;;;18.63;10.40;;;1.60;99.90;;;;;;5182086;28;20415;-49
2022/03/03 12:11:18;;;;;;;19.60;10.07;;;1.60;99.90;;;;;;5182436;28;20428;-48
2022/03/03 12:13:50;;;;;;;19.73;11.07;;;1.60;99.90;;;;;;5200034;28;20537;-50
2022/03/03 12:16:30;;;;;;;22.77;11.40;;;1.60;99.90;;;;;;5182693;28;20429;-49
2022/03/03 12:19:00;;;;;;;23.40;10.30;;;1.70;99.90;;;;;;5200947;28;20433;-50
2022/03/03 12:21:48;;;;;;;27.13;10.07;;;1.70;99.90;;;;;;5201160;28;20466;-48
2022/03/03 12:24:27;;;;;;;28.73;11.17;;;1.80;99.90;;;;;;5199399;28;20192;-47
2022/03/03 12:27:04;;;;;;;22.63;10.97;;;1.80;99.90;;;;;;5198679;28;20444;-48
2022/03/03 12:29:52;;;;;;;24.27;13.13;;;1.90;99.90;;;;;;5183419;28;20441;-48
2022/03/03 12:32:30;;;;;;;17.43;10.87;;;1.80;99.90;;;;;;5199553;28;20477;-49
2022/03/03 12:35:14;;;;;;;22.77;11.50;;;1.80;99.90;;;;;;5201178;28;20452;-48
2022/03/03 12:37:46;;;;;;;22.40;11.20;;;1.80;99.90;;;;;;5165908;28;20521;-48
2022/03/03 12:40:20;;;;;;;21.93;11.93;;;1.80;99.90;;;;;;5181525;28;20957;-49
2022/03/03 12:42:50;;;;;;;23.57;11.57;;;1.70;99.90;;;;;;5183488;28;20553;-49
2022/03/03 12:45:21;;;;;;;22.03;10.10;;;1.70;99.90;;;;;;5203262;28;20430;-48
2022/03/03 12:47:54;;;;;;;21.27;10.80;;;1.90;99.90;;;;;;5197830;28;20191;-50
2022/03/03 12:50:29;;;;;;;22.73;11.50;;;1.90;99.90;;;;;;5202861;28;20598;-48
2022/03/03 12:53:10;;;;;;;22.50;11.37;;;1.90;99.90;;;;;;5182757;28;20453;-49
2022/03/03 12:55:48;;;;;;;18.90;10.23;;;2.00;99.90;;;;;;5181931;28;20510;-49
2022/03/03 12:58:19;;;;;;;18.43;10.20;;;2.00;99.90;;;;;;5199390;28;20464;-50
2022/03/03 13:00:50;;;;;;;29.93;10.53;;;2.00;99.90;;;;;;5184983;28;20446;-48
2022/03/03 13:03:21;;;;;;;29.60;11.40;;;2.10;99.90;;;;;;5184594;28;20486;-49